createdAt,value
2023-01-18T00:00:47.865Z,-0.24
2023-01-18T00:03:14.564Z,-0.08
2023-01-18T00:05:42.120Z,0.03
2023-01-18T00:08:10.962Z,0.03
2023-01-18T00:10:38.147Z,0.00
2023-01-18T00:13:05.336Z,0.07
2023-01-18T00:15:32.692Z,0.12
2023-01-18T00:17:59.033Z,-0.05
2023-01-18T00:20:29.925Z,-0.23
2023-01-18T00:22:58.982Z,-0.23
2023-01-18T00:25:25.839Z,-0.17
2023-01-18T00:27:53.705Z,-0.10
2023-01-18T00:30:23.860Z,-0.02
2023-01-18T00:32:54.689Z,-0.03
2023-01-18T00:35:22.130Z,-0.03
2023-01-18T00:37:49.592Z,-0.13
2023-01-18T00:40:15.943Z,-0.17
2023-01-18T00:43:01.045Z,-0.15
2023-01-18T00:45:27.971Z,-0.13
2023-01-18T00:47:54.420Z,-0.14
2023-01-18T00:50:22.326Z,-0.04
2023-01-18T00:52:50.062Z,-0.02
2023-01-18T00:55:17.045Z,-0.06
2023-01-18T00:57:43.667Z,-0.05
2023-01-18T01:00:15.099Z,-0.08
2023-01-18T01:02:42.143Z,-0.08
2023-01-18T01:05:39.103Z,-0.03
2023-01-18T01:08:08.732Z,0.05
2023-01-18T01:10:35.434Z,0.05
2023-01-18T01:13:20.721Z,-0.01
2023-01-18T01:16:05.524Z,-0.03
2023-01-18T01:18:50.280Z,-0.01
2023-01-18T01:21:35.027Z,-0.01
2023-01-18T01:24:19.835Z,-0.07
2023-01-18T01:26:46.189Z,-0.09
2023-01-18T01:29:12.513Z,-0.10
2023-01-18T01:31:39.308Z,-0.06
2023-01-18T01:34:05.742Z,0.00
2023-01-18T01:36:32.240Z,-0.13
2023-01-18T01:38:58.653Z,-0.14
2023-01-18T01:41:28.229Z,-0.13
2023-01-18T01:44:14.449Z,-0.06
2023-01-18T01:46:52.607Z,-0.19
2023-01-18T01:49:32.022Z,-0.24
2023-01-18T01:52:06.097Z,-0.18
2023-01-18T01:54:38.757Z,-0.24
2023-01-18T01:57:14.201Z,-0.28
2023-01-18T01:59:53.179Z,-0.19
2023-01-18T02:02:19.885Z,-0.16
2023-01-18T02:04:46.435Z,-0.25
2023-01-18T02:07:13.082Z,-0.28
2023-01-18T02:09:40.146Z,-0.34
2023-01-18T02:12:06.599Z,-0.38
2023-01-18T02:14:33.328Z,-0.42
2023-01-18T02:17:15.410Z,-0.37
2023-01-18T02:20:20.115Z,-0.44
2023-01-18T02:23:23.305Z,-0.35
2023-01-18T02:26:17.798Z,-0.41
2023-01-18T02:29:10.006Z,-0.34
2023-01-18T02:31:46.721Z,-0.36
2023-01-18T02:34:25.815Z,-0.32
2023-01-18T02:37:19.875Z,-0.25
2023-01-18T02:39:52.381Z,-0.27
2023-01-18T02:42:40.272Z,-0.40
2023-01-18T02:45:54.063Z,-0.47
2023-01-18T02:48:22.865Z,-0.50
2023-01-18T02:50:50.072Z,-0.52
2023-01-18T02:53:16.905Z,-0.53
2023-01-18T02:55:59.362Z,-0.54
2023-01-18T02:58:33.518Z,-0.57
2023-01-18T03:01:09.125Z,-0.54
2023-01-18T03:03:36.046Z,-0.50
2023-01-18T03:06:05.479Z,-0.61
2023-01-18T03:08:48.459Z,-0.66
2023-01-18T03:11:31.219Z,-0.64
2023-01-18T03:14:16.055Z,-0.53
2023-01-18T03:17:08.644Z,-0.61
2023-01-18T03:20:03.819Z,-0.64
2023-01-18T03:22:55.410Z,-0.65
2023-01-18T03:25:31.246Z,-0.79
2023-01-18T03:28:22.244Z,-0.79
2023-01-18T03:31:09.541Z,-0.76
2023-01-18T03:33:47.422Z,-0.72
2023-01-18T03:36:33.866Z,-0.61
2023-01-18T03:39:10.514Z,-0.63
2023-01-18T03:41:42.577Z,-0.72
2023-01-18T03:44:19.012Z,-0.81
2023-01-18T03:46:45.575Z,-0.86
2023-01-18T03:49:12.787Z,-0.81
2023-01-18T03:52:20.745Z,-0.79
2023-01-18T03:55:00.933Z,-0.86
2023-01-18T03:57:43.578Z,-0.92
2023-01-18T04:00:11.297Z,-0.86
2023-01-18T04:02:37.940Z,-0.82
2023-01-18T04:05:05.704Z,-0.79
2023-01-18T04:07:32.958Z,-0.78
2023-01-18T04:10:00.334Z,-0.84
2023-01-18T04:12:27.507Z,-0.79
2023-01-18T04:14:53.899Z,-0.96
2023-01-18T04:17:20.656Z,-0.98
2023-01-18T04:19:47.032Z,-0.97
2023-01-18T04:22:14.015Z,-0.95
2023-01-18T04:24:40.356Z,-0.99
2023-01-18T04:27:06.808Z,-1.01
2023-01-18T04:29:33.145Z,-1.04
2023-01-18T04:31:59.822Z,-1.04
2023-01-18T04:34:26.183Z,-0.98
2023-01-18T04:36:53.661Z,-1.03
2023-01-18T04:39:20.744Z,-1.00
2023-01-18T04:41:47.047Z,-0.98
2023-01-18T04:44:13.665Z,-0.94
2023-01-18T04:46:40.201Z,-0.98
2023-01-18T04:49:10.952Z,-1.03
2023-01-18T04:51:38.813Z,-1.04
2023-01-18T04:54:05.389Z,-1.00
2023-01-18T04:56:31.786Z,-0.96
2023-01-18T04:58:58.165Z,-0.96
2023-01-18T05:01:25.060Z,-0.92
2023-01-18T05:03:52.875Z,-0.92
2023-01-18T05:06:22.096Z,-0.85
2023-01-18T05:08:48.798Z,-0.98
2023-01-18T05:11:17.812Z,-1.02
2023-01-18T05:13:45.527Z,-1.06
2023-01-18T05:16:17.868Z,-1.04
2023-01-18T05:18:45.016Z,-1.00
2023-01-18T05:21:11.644Z,-1.01
2023-01-18T05:23:40.206Z,-1.03
2023-01-18T05:26:16.187Z,-1.04
2023-01-18T05:28:42.939Z,-0.98
2023-01-18T05:31:09.657Z,-1.04
2023-01-18T05:33:36.332Z,-1.12
2023-01-18T05:36:02.772Z,-1.10
2023-01-18T05:38:47.633Z,-1.09
2023-01-18T05:41:14.044Z,-1.05
2023-01-18T05:43:40.508Z,-1.05
2023-01-18T05:46:06.961Z,-1.12
2023-01-18T05:48:33.339Z,-1.09
2023-01-18T05:50:59.710Z,-1.14
2023-01-18T05:53:26.447Z,-1.14
2023-01-18T05:56:00.789Z,-1.25
2023-01-18T05:58:27.815Z,-1.29
2023-01-18T06:00:55.799Z,-1.24
2023-01-18T06:03:23.611Z,-1.18
2023-01-18T06:05:51.398Z,-1.29
2023-01-18T06:08:18.579Z,-1.25
2023-01-18T06:10:51.545Z,-1.24
2023-01-18T06:13:17.911Z,-1.13
2023-01-18T06:15:44.565Z,-1.15
2023-01-18T06:18:10.978Z,-1.24
2023-01-18T06:20:37.333Z,-1.33
2023-01-18T06:23:03.878Z,-1.33
2023-01-18T06:25:30.279Z,-1.31
2023-01-18T06:27:56.598Z,-1.23
2023-01-18T06:30:22.988Z,-1.13
2023-01-18T06:32:50.424Z,-1.22
2023-01-18T06:35:16.925Z,-1.23
2023-01-18T06:37:45.524Z,-1.18
2023-01-18T06:40:12.964Z,-1.20
2023-01-18T06:42:40.166Z,-1.31
2023-01-18T06:45:07.170Z,-1.30
2023-01-18T06:47:34.837Z,-1.31
2023-01-18T06:50:01.164Z,-1.22
2023-01-18T06:52:27.546Z,-1.27
2023-01-18T06:54:54.092Z,-1.24
2023-01-18T06:57:20.523Z,-1.30
2023-01-18T06:59:46.870Z,-1.31
2023-01-18T07:02:14.920Z,-1.37
2023-01-18T07:04:44.211Z,-1.43
2023-01-18T07:07:11.431Z,-1.45
2023-01-18T07:09:38.213Z,-1.47
2023-01-18T07:12:04.797Z,-1.49
2023-01-18T07:14:31.183Z,-1.38
2023-01-18T07:16:57.823Z,-1.42
2023-01-18T07:19:24.233Z,-1.36
2023-01-18T07:21:53.569Z,-1.28
2023-01-18T07:24:20.507Z,-1.38
2023-01-18T07:26:46.884Z,-1.30
2023-01-18T07:29:13.317Z,-1.36
2023-01-18T07:31:40.535Z,-1.40
2023-01-18T07:34:07.215Z,-1.50
2023-01-18T07:36:34.207Z,-1.40
2023-01-18T07:39:03.061Z,-1.37
2023-01-18T07:41:30.988Z,-1.34
2023-01-18T07:43:57.755Z,-1.30
2023-01-18T07:46:26.005Z,-1.29
2023-01-18T07:48:52.656Z,-1.24
2023-01-18T07:51:21.592Z,-1.25
2023-01-18T07:53:48.705Z,-1.22
2023-01-18T07:56:17.716Z,-1.17
2023-01-18T07:58:45.239Z,-1.19
2023-01-18T08:01:15.238Z,-1.13
2023-01-18T08:03:43.300Z,-1.15
2023-01-18T08:06:10.270Z,-1.17
2023-01-18T08:08:37.078Z,-1.06
2023-01-18T08:11:06.005Z,-1.01
2023-01-18T08:13:32.679Z,-1.04
2023-01-18T08:16:01.360Z,-0.98
2023-01-18T08:18:28.444Z,-0.98
2023-01-18T08:20:55.358Z,-0.85
2023-01-18T08:23:22.607Z,-0.90
2023-01-18T08:25:49.566Z,-0.85
2023-01-18T08:28:16.124Z,-0.80
2023-01-18T08:30:45.650Z,-0.76
2023-01-18T08:33:12.551Z,-0.77
2023-01-18T08:35:45.192Z,-0.74
2023-01-18T08:38:13.526Z,-0.71
2023-01-18T08:40:40.252Z,-0.68
2023-01-18T08:43:07.093Z,-0.65
2023-01-18T08:45:37.415Z,-0.60
2023-01-18T08:48:06.150Z,-0.51
2023-01-18T08:50:33.787Z,-0.60
2023-01-18T08:53:01.116Z,-0.59
2023-01-18T08:55:29.572Z,-0.50
2023-01-18T08:57:57.748Z,-0.43
2023-01-18T09:00:28.621Z,-0.33
2023-01-18T09:02:55.487Z,-0.26
2023-01-18T09:05:22.550Z,-0.25
2023-01-18T09:07:50.958Z,-0.15
2023-01-18T09:10:17.463Z,-0.06
2023-01-18T09:12:43.892Z,0.02
2023-01-18T09:15:10.685Z,0.10
2023-01-18T09:17:37.083Z,0.09
2023-01-18T09:20:07.544Z,0.10
2023-01-18T09:22:34.080Z,0.11
2023-01-18T09:25:00.428Z,0.11
2023-01-18T09:27:26.776Z,0.12
2023-01-18T09:29:53.172Z,0.06
2023-01-18T09:32:20.117Z,0.17
2023-01-18T09:34:50.510Z,0.14
2023-01-18T09:37:19.081Z,0.17
2023-01-18T09:39:51.871Z,0.12
2023-01-18T09:42:22.624Z,0.21
2023-01-18T09:44:55.669Z,0.25
2023-01-18T09:47:34.484Z,0.36
2023-01-18T09:50:13.124Z,0.43
2023-01-18T09:52:54.970Z,0.52
2023-01-18T09:55:41.858Z,0.58
2023-01-18T09:58:28.829Z,0.76
2023-01-18T10:01:02.605Z,0.78
2023-01-18T10:03:34.880Z,0.85
2023-01-18T10:06:11.024Z,0.87
2023-01-18T10:08:49.738Z,0.96
2023-01-18T10:11:47.993Z,0.96
2023-01-18T10:14:48.930Z,1.10
2023-01-18T10:17:23.864Z,1.21
2023-01-18T10:19:50.878Z,1.15
2023-01-18T10:22:20.477Z,1.17
2023-01-18T10:24:53.199Z,1.09
2023-01-18T10:28:04.603Z,1.11
2023-01-18T10:30:44.290Z,1.16
2023-01-18T10:33:23.031Z,1.29
2023-01-18T10:35:56.990Z,1.42
2023-01-18T10:38:26.817Z,1.43
2023-01-18T10:41:00.537Z,1.38
2023-01-18T10:43:29.995Z,1.35
2023-01-18T10:45:56.512Z,1.31
2023-01-18T10:48:32.062Z,1.29
2023-01-18T10:51:05.713Z,1.30
2023-01-18T10:53:35.187Z,1.43
2023-01-18T10:56:07.562Z,1.53
2023-01-18T10:58:45.351Z,1.59
2023-01-18T11:01:35.076Z,1.52
2023-01-18T11:04:08.113Z,1.62
2023-01-18T11:06:50.217Z,1.79
2023-01-18T11:10:11.135Z,2.04
2023-01-18T11:12:47.852Z,2.01
2023-01-18T11:15:14.288Z,2.16
2023-01-18T11:17:50.360Z,2.23
2023-01-18T11:20:21.737Z,2.22
2023-01-18T11:23:03.649Z,2.39
2023-01-18T11:25:37.598Z,2.44
2023-01-18T11:28:07.428Z,2.47
2023-01-18T11:30:34.706Z,2.49
2023-01-18T11:33:01.323Z,2.64
2023-01-18T11:35:33.895Z,2.81
2023-01-18T11:38:02.778Z,2.95
2023-01-18T11:40:32.251Z,2.92
2023-01-18T11:43:03.681Z,2.84
2023-01-18T11:45:40.280Z,2.89
2023-01-18T11:48:13.064Z,2.86
2023-01-18T11:50:48.613Z,2.90
2023-01-18T11:53:27.092Z,2.95
2023-01-18T11:56:06.538Z,3.17
2023-01-18T11:58:35.318Z,3.14
2023-01-18T12:01:10.558Z,3.18
2023-01-18T12:03:52.049Z,3.31
2023-01-18T12:06:56.448Z,3.40
2023-01-18T12:10:00.354Z,3.49
2023-01-18T12:13:00.668Z,3.63
2023-01-18T12:15:51.963Z,3.62
2023-01-18T12:18:38.145Z,3.65
2023-01-18T12:21:11.818Z,3.69
2023-01-18T12:23:47.183Z,3.80
2023-01-18T12:26:25.343Z,3.72
2023-01-18T12:29:09.977Z,3.74
2023-01-18T12:31:49.431Z,3.82
2023-01-18T12:34:22.076Z,3.78
2023-01-18T12:37:01.661Z,3.86
2023-01-18T12:39:37.361Z,4.11
2023-01-18T12:42:09.914Z,4.18
2023-01-18T12:44:57.910Z,4.33
2023-01-18T12:47:34.937Z,4.46
2023-01-18T12:50:12.639Z,4.32
2023-01-18T12:52:51.045Z,4.41
2023-01-18T12:55:25.779Z,4.68
2023-01-18T12:57:56.353Z,4.96
2023-01-18T13:00:36.154Z,4.92
2023-01-18T13:03:09.939Z,5.00
2023-01-18T13:05:52.381Z,5.11
2023-01-18T13:08:40.244Z,5.19
2023-01-18T13:11:12.928Z,5.22
2023-01-18T13:13:41.793Z,5.29
2023-01-18T13:16:29.577Z,5.42
2023-01-18T13:19:07.081Z,5.57
2023-01-18T13:21:43.924Z,5.66
2023-01-18T13:24:29.601Z,5.60
2023-01-18T13:27:10.959Z,5.62
2023-01-18T13:29:39.084Z,5.73
2023-01-18T13:32:35.267Z,5.80
2023-01-18T13:35:19.499Z,5.80
2023-01-18T13:37:50.892Z,5.76
2023-01-18T13:40:27.628Z,5.74
2023-01-18T13:42:54.050Z,5.73
2023-01-18T13:45:23.522Z,5.78
2023-01-18T13:48:42.305Z,5.73
2023-01-18T13:51:09.246Z,5.89
2023-01-18T13:53:50.091Z,5.92
2023-01-18T13:56:37.443Z,5.87
2023-01-18T13:59:12.804Z,5.95
2023-01-18T14:01:45.653Z,5.88
2023-01-18T14:04:24.022Z,5.91
2023-01-18T14:06:51.454Z,5.74
2023-01-18T14:09:28.206Z,6.04
2023-01-18T14:11:56.878Z,6.15
2023-01-18T14:14:28.181Z,6.78
2023-01-18T14:17:17.089Z,6.87
2023-01-18T14:19:52.178Z,6.69
2023-01-18T14:22:37.187Z,6.36
2023-01-18T14:25:41.846Z,6.24
2023-01-18T14:28:13.494Z,6.36
2023-01-18T14:30:44.830Z,6.91
2023-01-18T14:33:11.160Z,6.95
2023-01-18T14:35:37.660Z,7.47
2023-01-18T14:38:18.867Z,7.78
2023-01-18T14:40:52.568Z,7.84
2023-01-18T14:43:29.137Z,8.13
2023-01-18T14:46:02.287Z,8.35
2023-01-18T14:48:31.224Z,8.48
2023-01-18T14:50:59.203Z,8.55
2023-01-18T14:53:35.665Z,8.52
2023-01-18T14:56:14.064Z,8.66
2023-01-18T14:58:51.706Z,8.47
2023-01-18T15:01:37.087Z,8.27
2023-01-18T15:04:06.502Z,8.11
2023-01-18T15:06:45.221Z,7.68
2023-01-18T15:09:12.907Z,7.39
2023-01-18T15:11:42.130Z,6.97
2023-01-18T15:14:15.593Z,6.51
2023-01-18T15:16:42.707Z,6.21
2023-01-18T15:19:17.606Z,6.15
2023-01-18T15:21:45.993Z,6.02
2023-01-18T15:24:22.640Z,5.91
2023-01-18T15:26:57.081Z,5.82
2023-01-18T15:29:32.749Z,5.69
2023-01-18T15:32:05.328Z,5.42
2023-01-18T15:34:36.072Z,5.27
2023-01-18T15:37:12.223Z,5.17
2023-01-18T15:40:08.296Z,5.06
2023-01-18T15:42:39.567Z,5.03
2023-01-18T15:45:17.650Z,4.93
2023-01-18T15:47:50.044Z,4.84
2023-01-18T15:50:22.173Z,4.82
2023-01-18T15:53:02.022Z,4.77
2023-01-18T15:55:53.309Z,4.57
2023-01-18T15:58:25.819Z,4.47
2023-01-18T16:01:01.081Z,4.43
2023-01-18T16:03:40.049Z,4.40
2023-01-18T16:06:12.920Z,4.35
2023-01-18T16:09:12.128Z,4.32
2023-01-18T16:11:51.884Z,4.35
2023-01-18T16:14:28.613Z,4.22
2023-01-18T16:16:57.379Z,4.13
2023-01-18T16:19:43.577Z,4.16
2023-01-18T16:22:28.093Z,4.08
2023-01-18T16:24:57.576Z,4.03
2023-01-18T16:27:27.181Z,4.05
2023-01-18T16:29:59.718Z,4.00
2023-01-18T16:32:29.009Z,3.97
2023-01-18T16:34:59.865Z,3.91
2023-01-18T16:37:26.588Z,3.89
2023-01-18T16:39:55.238Z,3.83
2023-01-18T16:42:29.659Z,3.72
2023-01-18T16:45:03.933Z,3.68
2023-01-18T16:47:30.297Z,3.68
2023-01-18T16:49:56.672Z,3.58
2023-01-18T16:52:23.236Z,3.60
2023-01-18T16:54:49.673Z,3.55
2023-01-18T16:57:21.817Z,3.47
2023-01-18T16:59:48.997Z,3.47
2023-01-18T17:02:15.865Z,3.46
2023-01-18T17:04:42.790Z,3.45
2023-01-18T17:07:10.140Z,3.38
2023-01-18T17:09:48.029Z,3.28
2023-01-18T17:12:15.587Z,3.25
2023-01-18T17:14:42.097Z,3.22
2023-01-18T17:17:09.626Z,3.26
2023-01-18T17:19:37.586Z,3.18
2023-01-18T17:22:04.423Z,3.15
2023-01-18T17:24:30.874Z,3.13
2023-01-18T17:26:57.524Z,3.13
2023-01-18T17:29:25.190Z,3.02
2023-01-18T17:31:53.115Z,3.00
2023-01-18T17:34:28.190Z,3.00
2023-01-18T17:36:57.071Z,3.08
2023-01-18T17:39:31.724Z,3.10
2023-01-18T17:42:12.046Z,3.00
2023-01-18T17:44:38.853Z,2.66
2023-01-18T17:47:05.437Z,2.52
2023-01-18T17:49:32.214Z,2.53
2023-01-18T17:51:58.572Z,2.44
2023-01-18T17:54:25.231Z,2.27
2023-01-18T17:56:53.097Z,2.23
2023-01-18T17:59:19.824Z,2.08
2023-01-18T18:01:46.404Z,1.99
2023-01-18T18:04:12.950Z,1.94
2023-01-18T18:06:46.161Z,1.87
2023-01-18T18:09:19.839Z,2.01
2023-01-18T18:11:46.287Z,1.90
2023-01-18T18:14:12.646Z,1.91
2023-01-18T18:16:43.600Z,1.88
2023-01-18T18:19:14.399Z,1.88
2023-01-18T18:21:42.125Z,1.95
2023-01-18T18:24:08.561Z,1.96
2023-01-18T18:26:35.203Z,1.83
2023-01-18T18:29:01.596Z,1.81
2023-01-18T18:31:29.685Z,1.79
2023-01-18T18:33:56.130Z,1.78
2023-01-18T18:36:22.829Z,1.75
2023-01-18T18:38:49.157Z,1.76
2023-01-18T18:41:15.575Z,1.73
2023-01-18T18:43:41.914Z,1.67
2023-01-18T18:46:08.363Z,1.65
2023-01-18T18:48:34.849Z,1.63
2023-01-18T18:51:01.154Z,1.60
2023-01-18T18:53:37.512Z,1.72
2023-01-18T18:56:10.254Z,1.76
2023-01-18T18:58:37.920Z,1.66
2023-01-18T19:01:05.484Z,1.68
2023-01-18T19:03:32.827Z,1.55
2023-01-18T19:05:59.249Z,1.49
2023-01-18T19:08:25.721Z,1.44
2023-01-18T19:10:52.175Z,1.42
2023-01-18T19:13:19.149Z,1.38
2023-01-18T19:15:46.835Z,1.36
2023-01-18T19:18:14.362Z,1.28
2023-01-18T19:20:41.002Z,1.19
2023-01-18T19:23:09.028Z,1.21
2023-01-18T19:25:37.897Z,1.23
2023-01-18T19:28:04.501Z,1.18
2023-01-18T19:30:31.600Z,1.26
2023-01-18T19:33:00.124Z,1.31
2023-01-18T19:35:26.983Z,1.30
2023-01-18T19:37:53.568Z,1.29
2023-01-18T19:40:20.885Z,1.25
2023-01-18T19:42:54.356Z,1.27
2023-01-18T19:45:27.806Z,1.37
2023-01-18T19:47:57.575Z,1.44
2023-01-18T19:50:24.507Z,1.59
2023-01-18T19:52:50.880Z,1.83
2023-01-18T19:55:17.208Z,1.88
2023-01-18T19:57:43.680Z,1.76
2023-01-18T20:00:10.794Z,1.68
2023-01-18T20:02:41.194Z,1.73
2023-01-18T20:05:08.447Z,1.61
2023-01-18T20:07:37.245Z,1.55
2023-01-18T20:10:03.816Z,1.55
2023-01-18T20:12:31.924Z,1.51
2023-01-18T20:14:58.515Z,1.52
2023-01-18T20:17:24.977Z,1.58
2023-01-18T20:19:54.029Z,1.59
2023-01-18T20:22:21.546Z,1.61
2023-01-18T20:24:47.951Z,1.46
2023-01-18T20:27:16.609Z,1.31
2023-01-18T20:29:43.710Z,1.25
2023-01-18T20:32:16.170Z,1.26
2023-01-18T20:34:47.295Z,1.25
2023-01-18T20:37:15.322Z,1.17
2023-01-18T20:39:41.923Z,1.13
2023-01-18T20:42:08.664Z,1.19
2023-01-18T20:44:35.888Z,1.24
2023-01-18T20:47:02.578Z,1.17
2023-01-18T20:49:44.026Z,1.11
2023-01-18T20:52:10.788Z,1.11
2023-01-18T20:54:37.624Z,1.16
2023-01-18T20:57:06.377Z,1.19
2023-01-18T20:59:33.030Z,1.19
2023-01-18T21:01:59.592Z,1.17
2023-01-18T21:04:26.171Z,1.25
2023-01-18T21:06:52.558Z,1.25
2023-01-18T21:09:18.934Z,1.23
2023-01-18T21:11:45.530Z,1.24
2023-01-18T21:14:12.584Z,1.17
2023-01-18T21:16:39.165Z,1.21
2023-01-18T21:19:05.530Z,1.20
2023-01-18T21:21:32.079Z,1.29
2023-01-18T21:23:59.974Z,1.30
2023-01-18T21:26:26.481Z,1.35
2023-01-18T21:28:53.088Z,1.35
2023-01-18T21:31:19.753Z,1.32
2023-01-18T21:33:46.291Z,1.36
2023-01-18T21:36:15.498Z,1.31
2023-01-18T21:38:41.924Z,1.35
2023-01-18T21:41:27.488Z,1.38
2023-01-18T21:44:12.797Z,1.45
2023-01-18T21:46:44.497Z,1.49
2023-01-18T21:49:42.962Z,1.50
2023-01-18T21:52:36.102Z,1.52
2023-01-18T21:55:02.483Z,1.47
2023-01-18T21:57:28.802Z,1.36
2023-01-18T21:59:55.291Z,1.39
2023-01-18T22:02:22.409Z,1.35
2023-01-18T22:04:59.013Z,1.27
2023-01-18T22:07:30.152Z,1.32
2023-01-18T22:10:05.963Z,1.25
2023-01-18T22:12:35.071Z,1.31
2023-01-18T22:15:02.887Z,1.41
2023-01-18T22:17:29.758Z,1.47
2023-01-18T22:19:56.393Z,1.45
2023-01-18T22:22:22.822Z,1.49
2023-01-18T22:24:49.152Z,1.50
2023-01-18T22:27:15.469Z,1.55
2023-01-18T22:29:41.859Z,1.58
2023-01-18T22:32:08.186Z,1.67
2023-01-18T22:34:34.624Z,1.65
2023-01-18T22:37:01.134Z,1.64
2023-01-18T22:39:27.464Z,1.66
2023-01-18T22:41:53.834Z,1.69
2023-01-18T22:44:23.329Z,1.68
2023-01-18T22:46:49.879Z,1.71
2023-01-18T22:49:16.322Z,1.66
2023-01-18T22:51:43.433Z,1.59
2023-01-18T22:54:09.914Z,1.64
2023-01-18T22:56:36.419Z,1.56
2023-01-18T22:59:02.815Z,1.55
2023-01-18T23:01:31.986Z,1.68
2023-01-18T23:04:01.340Z,1.75
2023-01-18T23:06:28.960Z,1.77
2023-01-18T23:08:56.391Z,1.81
2023-01-18T23:11:29.117Z,1.78
2023-01-18T23:14:16.079Z,1.75
2023-01-18T23:17:02.062Z,1.65
2023-01-18T23:19:30.644Z,1.69
2023-01-18T23:21:57.444Z,1.76
2023-01-18T23:24:24.175Z,1.69
2023-01-18T23:26:51.084Z,1.72
2023-01-18T23:29:18.419Z,1.67
2023-01-18T23:31:44.957Z,1.64
2023-01-18T23:34:11.429Z,1.58
2023-01-18T23:36:37.836Z,1.70
2023-01-18T23:39:23.097Z,1.63
2023-01-18T23:42:07.948Z,1.69
2023-01-18T23:44:52.625Z,1.70
2023-01-18T23:47:37.860Z,1.52
2023-01-18T23:50:23.117Z,1.55
2023-01-18T23:53:07.943Z,1.62
2023-01-18T23:55:34.322Z,1.64
2023-01-18T23:58:01.148Z,1.63
